createdAt,value
2019-05-05T00:02:04.820Z,8.98
2019-05-05T00:04:47.382Z,8.48
2019-05-05T00:07:18.182Z,8.13
2019-05-05T00:09:47.344Z,7.90
2019-05-05T00:12:25.462Z,10.68
2019-05-05T00:14:56.282Z,11.65
2019-05-05T00:17:27.060Z,9.73
2019-05-05T00:19:56.339Z,9.75
2019-05-05T00:22:25.455Z,10.58
2019-05-05T00:24:54.732Z,8.33
2019-05-05T00:27:25.411Z,11.33
2019-05-05T00:29:54.836Z,11.50
2019-05-05T00:32:24.583Z,9.55
2019-05-05T00:34:55.139Z,12.37
2019-05-05T00:37:25.629Z,9.95
2019-05-05T00:39:55.095Z,11.22
2019-05-05T00:42:24.829Z,12.00
2019-05-05T00:44:54.900Z,11.28
2019-05-05T00:47:45.291Z,11.30
2019-05-05T00:50:16.105Z,11.25
2019-05-05T00:52:45.411Z,12.50
2019-05-05T00:55:15.206Z,12.88
2019-05-05T00:57:45.476Z,10.93
2019-05-05T01:00:18.779Z,11.10
2019-05-05T01:02:49.700Z,11.65
2019-05-05T01:05:25.189Z,8.85
2019-05-05T01:07:54.773Z,14.40
2019-05-05T01:10:25.174Z,9.98
2019-05-05T01:12:57.375Z,12.10
2019-05-05T01:15:27.699Z,10.53
2019-05-05T01:17:56.829Z,11.08
2019-05-05T01:20:26.071Z,10.60
2019-05-05T01:22:55.430Z,11.75
2019-05-05T01:25:25.476Z,12.98
2019-05-05T01:27:54.774Z,12.05
2019-05-05T01:30:29.647Z,11.28
2019-05-05T01:33:15.475Z,11.53
2019-05-05T01:35:45.620Z,12.50
2019-05-05T01:38:31.499Z,12.07
2019-05-05T01:41:04.190Z,12.05
2019-05-05T01:43:34.645Z,12.93
2019-05-05T01:46:05.161Z,11.35
2019-05-05T01:48:35.119Z,12.82
2019-05-05T01:51:05.053Z,11.53
2019-05-05T01:53:34.937Z,13.18
2019-05-05T01:56:05.305Z,9.53
2019-05-05T01:58:34.961Z,13.62
2019-05-05T02:01:04.994Z,12.90
2019-05-05T02:03:34.981Z,13.93
2019-05-05T02:06:05.274Z,13.25
2019-05-05T02:08:35.062Z,10.55
2019-05-05T02:11:05.244Z,11.53
2019-05-05T02:13:34.761Z,11.38
2019-05-05T02:16:04.754Z,13.65
2019-05-05T02:18:34.576Z,9.78
2019-05-05T02:21:05.408Z,12.58
2019-05-05T02:23:35.303Z,12.40
2019-05-05T02:26:05.796Z,11.93
2019-05-05T02:28:36.602Z,11.93
2019-05-05T02:31:25.266Z,11.65
2019-05-05T02:33:56.592Z,13.72
2019-05-05T02:36:25.724Z,11.50
2019-05-05T02:38:56.685Z,14.40
2019-05-05T02:41:26.033Z,12.45
2019-05-05T02:43:55.849Z,13.08
2019-05-05T02:46:35.931Z,13.40
2019-05-05T02:49:05.675Z,16.97
2019-05-05T02:51:35.596Z,14.43
2019-05-05T02:54:05.939Z,13.60
2019-05-05T02:56:46.065Z,14.25
2019-05-05T02:59:16.902Z,14.68
2019-05-05T03:01:47.806Z,15.72
2019-05-05T03:04:16.960Z,14.15
2019-05-05T03:06:47.456Z,13.55
2019-05-05T03:09:16.628Z,14.98
2019-05-05T03:11:46.048Z,17.27
2019-05-05T03:14:15.221Z,14.23
2019-05-05T03:16:44.384Z,13.05
2019-05-05T03:19:14.213Z,13.20
2019-05-05T03:21:44.140Z,9.80
2019-05-05T03:24:14.355Z,13.03
2019-05-05T03:26:44.463Z,12.93
2019-05-05T03:29:21.077Z,13.93
2019-05-05T03:31:50.290Z,12.35
2019-05-05T03:34:20.014Z,13.55
2019-05-05T03:36:49.183Z,12.75
2019-05-05T03:39:26.027Z,10.98
2019-05-05T03:41:59.881Z,12.23
2019-05-05T03:44:30.675Z,10.58
2019-05-05T03:46:59.851Z,13.22
2019-05-05T03:49:28.997Z,10.93
2019-05-05T03:51:58.170Z,11.40
2019-05-05T03:54:27.575Z,12.33
2019-05-05T03:57:09.042Z,11.70
2019-05-05T03:59:44.091Z,12.13
2019-05-05T04:02:17.575Z,12.18
2019-05-05T04:04:48.393Z,15.05
2019-05-05T04:07:17.579Z,14.00
2019-05-05T04:09:46.790Z,13.40
2019-05-05T04:12:16.122Z,12.55
2019-05-05T04:14:45.333Z,10.82
2019-05-05T04:17:33.519Z,12.70
2019-05-05T04:20:19.255Z,13.62
2019-05-05T04:22:49.486Z,13.43
2019-05-05T04:25:18.643Z,17.50
2019-05-05T04:27:47.861Z,14.68
2019-05-05T04:30:17.027Z,12.70
2019-05-05T04:32:46.186Z,13.83
2019-05-05T04:35:15.367Z,16.12
2019-05-05T04:37:44.526Z,14.65
2019-05-05T04:40:14.782Z,12.88
2019-05-05T04:42:44.362Z,14.83
2019-05-05T04:45:14.845Z,13.65
2019-05-05T04:47:45.805Z,12.50
2019-05-05T04:50:19.283Z,18.30
2019-05-05T04:52:50.014Z,17.25
2019-05-05T04:55:20.280Z,15.83
2019-05-05T04:57:49.434Z,18.67
2019-05-05T05:00:18.598Z,17.00
2019-05-05T05:02:58.642Z,17.10
2019-05-05T05:05:33.764Z,14.68
2019-05-05T05:08:03.697Z,15.95
2019-05-05T05:10:34.590Z,14.90
2019-05-05T05:13:04.651Z,16.50
2019-05-05T05:15:34.188Z,15.75
2019-05-05T05:18:05.085Z,14.50
2019-05-05T05:20:34.292Z,19.30
2019-05-05T05:23:03.752Z,17.52
2019-05-05T05:25:34.646Z,14.83
2019-05-05T05:28:04.384Z,13.90
2019-05-05T05:30:34.714Z,19.73
2019-05-05T05:33:04.790Z,17.07
2019-05-05T05:35:33.962Z,16.02
2019-05-05T05:38:04.618Z,20.57
2019-05-05T05:40:48.038Z,17.73
2019-05-05T05:43:18.894Z,18.23
2019-05-05T05:45:55.729Z,16.20
2019-05-05T05:48:29.502Z,18.98
2019-05-05T05:51:00.314Z,18.00
2019-05-05T05:53:29.488Z,14.90
2019-05-05T05:55:58.648Z,15.98
2019-05-05T05:58:27.847Z,16.52
2019-05-05T06:00:57.795Z,15.53
2019-05-05T06:03:27.013Z,15.93
2019-05-05T06:05:56.254Z,16.62
2019-05-05T06:08:25.399Z,16.25
2019-05-05T06:10:54.837Z,18.70
2019-05-05T06:13:24.301Z,16.07
2019-05-05T06:15:53.751Z,15.25
2019-05-05T06:18:24.318Z,15.23
2019-05-05T06:20:53.866Z,14.85
2019-05-05T06:23:24.038Z,15.10
2019-05-05T06:25:55.097Z,14.40
2019-05-05T06:28:24.563Z,17.57
2019-05-05T06:30:54.685Z,14.80
2019-05-05T06:33:24.257Z,13.85
2019-05-05T06:35:54.575Z,14.13
2019-05-05T06:38:24.270Z,14.98
2019-05-05T06:41:00.738Z,15.23
2019-05-05T06:43:49.849Z,14.55
2019-05-05T06:46:26.521Z,17.30
2019-05-05T06:48:55.711Z,15.70
2019-05-05T06:51:24.929Z,17.73
2019-05-05T06:53:54.135Z,17.12
2019-05-05T06:56:23.848Z,15.75
2019-05-05T06:58:54.062Z,16.00
2019-05-05T07:01:24.785Z,16.00
2019-05-05T07:03:54.229Z,15.53
2019-05-05T07:06:23.980Z,15.50
2019-05-05T07:08:54.573Z,15.53
2019-05-05T07:11:23.992Z,13.68
2019-05-05T07:13:53.764Z,14.78
2019-05-05T07:16:24.301Z,14.63
2019-05-05T07:18:54.040Z,14.58
2019-05-05T07:21:25.151Z,15.25
2019-05-05T07:23:54.293Z,14.15
2019-05-05T07:26:23.889Z,14.38
2019-05-05T07:28:54.326Z,16.77
2019-05-05T07:31:23.892Z,15.18
2019-05-05T07:33:54.483Z,17.57
2019-05-05T07:36:40.660Z,13.78
2019-05-05T07:39:11.092Z,14.65
2019-05-05T07:41:40.691Z,15.83
2019-05-05T07:44:25.096Z,15.58
2019-05-05T07:46:41.047Z,13.48
2019-05-05T07:49:10.241Z,13.50
2019-05-05T07:51:39.377Z,14.30
2019-05-05T07:54:08.564Z,16.62
2019-05-05T07:56:37.763Z,13.13
2019-05-05T07:59:07.502Z,15.93
2019-05-05T08:01:36.651Z,12.50
2019-05-05T08:04:05.814Z,15.10
2019-05-05T08:06:34.965Z,12.95
2019-05-05T08:09:05.550Z,14.05
2019-05-05T08:11:35.841Z,15.70
2019-05-05T08:14:05.075Z,26.20
2019-05-05T08:16:53.622Z,14.63
2019-05-05T08:19:27.206Z,17.02
2019-05-05T08:21:56.343Z,44.85
2019-05-05T08:24:30.104Z,15.32
2019-05-05T08:27:16.303Z,13.38
2019-05-05T08:29:47.240Z,12.65
2019-05-05T08:32:23.912Z,16.93
2019-05-05T08:34:59.848Z,18.20
2019-05-05T08:37:23.936Z,14.28
2019-05-05T08:39:54.036Z,15.45
2019-05-05T08:42:24.638Z,13.40
2019-05-05T08:44:54.168Z,14.07
2019-05-05T08:47:24.586Z,13.32
2019-05-05T08:49:54.337Z,14.40
2019-05-05T08:52:23.907Z,11.73
2019-05-05T08:54:54.128Z,11.78
2019-05-05T08:57:23.718Z,10.03
2019-05-05T08:59:54.495Z,13.00
2019-05-05T09:02:24.052Z,11.68
2019-05-05T09:04:53.894Z,12.18
2019-05-05T09:07:24.328Z,15.60
2019-05-05T09:09:54.828Z,12.07
2019-05-05T09:12:23.998Z,12.85
2019-05-05T09:14:53.873Z,13.62
2019-05-05T09:17:24.342Z,10.05
2019-05-05T09:19:54.044Z,12.68
2019-05-05T09:22:24.583Z,17.00
2019-05-05T09:25:04.611Z,12.65
2019-05-05T09:27:44.128Z,9.98
2019-05-05T09:30:14.635Z,11.28
2019-05-05T09:32:43.986Z,12.15
2019-05-05T09:35:14.250Z,11.38
2019-05-05T09:37:44.351Z,11.63
2019-05-05T09:40:15.338Z,13.95
2019-05-05T09:42:44.603Z,12.00
2019-05-05T09:45:14.075Z,11.22
2019-05-05T09:47:44.990Z,11.15
2019-05-05T09:50:15.923Z,11.73
2019-05-05T09:52:45.125Z,13.20
2019-05-05T09:55:14.337Z,10.00
2019-05-05T09:57:43.931Z,12.53
2019-05-05T10:00:14.386Z,11.88
2019-05-05T10:02:44.173Z,9.88
2019-05-05T10:05:14.645Z,13.68
2019-05-05T10:07:44.169Z,13.53
2019-05-05T10:10:13.884Z,12.28
2019-05-05T10:12:44.601Z,11.18
2019-05-05T10:15:14.077Z,11.63
2019-05-05T10:17:43.865Z,9.70
2019-05-05T10:20:14.567Z,12.35
2019-05-05T10:22:44.935Z,10.75
2019-05-05T10:25:25.902Z,12.82
2019-05-05T10:27:55.507Z,10.88
2019-05-05T10:30:24.648Z,12.13
2019-05-05T10:32:54.567Z,11.53
2019-05-05T10:35:23.954Z,12.70
2019-05-05T10:37:54.539Z,10.25
2019-05-05T10:40:26.088Z,8.05
2019-05-05T10:42:55.238Z,8.05
2019-05-05T10:45:24.715Z,8.95
2019-05-05T10:47:54.329Z,9.45
2019-05-05T10:50:24.651Z,9.68
2019-05-05T10:52:57.703Z,10.20
2019-05-05T10:55:27.289Z,11.57
2019-05-05T10:58:00.114Z,11.03
2019-05-05T11:00:44.545Z,8.05
2019-05-05T11:03:15.073Z,6.67
2019-05-05T11:05:45.131Z,10.03
2019-05-05T11:08:15.599Z,10.23
2019-05-05T11:10:45.288Z,10.38
2019-05-05T11:13:15.681Z,10.03
2019-05-05T11:15:46.483Z,13.78
2019-05-05T11:18:15.736Z,14.18
2019-05-05T11:20:45.373Z,11.85
2019-05-05T11:23:15.262Z,13.15
2019-05-05T11:25:49.936Z,11.10
2019-05-05T11:28:22.462Z,14.47
2019-05-05T11:30:53.621Z,15.18
2019-05-05T11:33:30.032Z,16.12
2019-05-05T11:36:20.582Z,17.82
2019-05-05T11:38:47.674Z,17.60
2019-05-05T11:41:17.127Z,14.87
2019-05-05T11:43:46.596Z,15.75
2019-05-05T11:46:15.770Z,13.85
2019-05-05T11:48:45.154Z,13.03
2019-05-05T11:51:15.054Z,14.58
2019-05-05T11:53:44.855Z,12.63
2019-05-05T11:56:15.240Z,13.83
2019-05-05T11:58:48.945Z,12.13
2019-05-05T12:01:18.154Z,14.43
2019-05-05T12:03:47.358Z,12.95
2019-05-05T12:06:16.878Z,14.90
2019-05-05T12:08:46.154Z,12.90
2019-05-05T12:11:15.676Z,12.25
2019-05-05T12:13:44.936Z,10.85
2019-05-05T12:16:15.878Z,8.88
2019-05-05T12:18:45.192Z,10.40
2019-05-05T12:21:14.402Z,9.30
2019-05-05T12:23:44.470Z,8.60
2019-05-05T12:26:18.172Z,9.08
2019-05-05T12:28:54.951Z,8.08
2019-05-05T12:31:28.758Z,10.08
2019-05-05T12:33:57.941Z,10.72
2019-05-05T12:36:27.084Z,9.78
2019-05-05T12:38:56.241Z,10.75
2019-05-05T12:41:25.479Z,8.20
2019-05-05T12:43:55.099Z,7.58
2019-05-05T12:46:29.096Z,7.60
2019-05-05T12:49:00.015Z,8.65
2019-05-05T12:51:29.241Z,8.53
2019-05-05T12:53:58.457Z,9.35
2019-05-05T12:56:27.635Z,11.43
2019-05-05T12:58:56.805Z,6.62
2019-05-05T13:01:39.881Z,8.65
2019-05-05T13:04:09.073Z,10.78
2019-05-05T13:06:38.538Z,8.20
2019-05-05T13:09:07.910Z,6.30
2019-05-05T13:11:37.337Z,6.00
2019-05-05T13:14:06.519Z,9.88
2019-05-05T13:16:35.835Z,6.67
2019-05-05T13:19:06.647Z,7.05
2019-05-05T13:21:44.220Z,7.50
2019-05-05T13:24:31.847Z,9.93
2019-05-05T13:27:08.731Z,8.80
2019-05-05T13:29:33.866Z,8.58
2019-05-05T13:32:03.690Z,10.35
2019-05-05T13:34:33.031Z,9.80
2019-05-05T13:37:03.603Z,10.32
2019-05-05T13:39:34.024Z,11.28
2019-05-05T13:42:04.611Z,10.78
2019-05-05T13:44:50.733Z,15.08
2019-05-05T13:47:20.124Z,11.45
2019-05-05T13:49:50.987Z,11.85
2019-05-05T13:52:20.173Z,11.97
2019-05-05T13:54:49.333Z,11.18
2019-05-05T13:57:18.576Z,13.88
2019-05-05T13:59:47.843Z,12.33
2019-05-05T14:02:17.129Z,12.53
2019-05-05T14:04:46.374Z,14.00
2019-05-05T14:07:15.615Z,11.48
2019-05-05T14:09:45.921Z,9.80
2019-05-05T14:12:15.095Z,9.48
2019-05-05T14:14:44.335Z,12.45
2019-05-05T14:17:14.739Z,13.32
2019-05-05T14:19:44.640Z,11.15
2019-05-05T14:22:15.114Z,10.30
2019-05-05T14:24:46.178Z,8.53
2019-05-05T14:27:16.342Z,10.50
2019-05-05T14:29:56.222Z,11.40
2019-05-05T14:32:27.179Z,8.43
2019-05-05T14:35:00.777Z,9.85
2019-05-05T14:37:31.602Z,8.48
2019-05-05T14:40:00.834Z,9.53
2019-05-05T14:42:31.779Z,8.03
2019-05-05T14:45:01.082Z,8.58
2019-05-05T14:47:33.459Z,9.50
2019-05-05T14:50:04.531Z,8.63
2019-05-05T14:52:33.393Z,9.73
2019-05-05T14:55:03.875Z,8.80
2019-05-05T14:57:33.688Z,8.40
2019-05-05T15:00:04.806Z,8.15
2019-05-05T15:02:34.745Z,8.30
2019-05-05T15:05:24.468Z,19.57
2019-05-05T15:08:13.626Z,10.15
2019-05-05T15:11:01.175Z,8.03
2019-05-05T15:13:30.352Z,11.10
2019-05-05T15:15:59.645Z,9.08
2019-05-05T15:18:28.804Z,8.40
2019-05-05T15:20:58.116Z,6.33
2019-05-05T15:23:27.478Z,7.42
2019-05-05T15:25:56.758Z,9.18
2019-05-05T15:28:25.954Z,7.72
2019-05-05T15:30:55.178Z,7.87
2019-05-05T15:33:24.553Z,7.92
2019-05-05T15:35:54.325Z,9.15
2019-05-05T15:38:24.437Z,8.23
2019-05-05T15:40:54.743Z,6.60
2019-05-05T15:43:24.393Z,10.00
2019-05-05T15:45:54.128Z,10.18
2019-05-05T15:48:23.408Z,7.22
2019-05-05T15:50:54.502Z,4.92
2019-05-05T15:53:23.590Z,8.28
2019-05-05T15:55:54.013Z,6.87
2019-05-05T15:58:24.463Z,6.08
2019-05-05T16:00:53.913Z,7.67
2019-05-05T16:03:23.184Z,9.28
2019-05-05T16:05:54.128Z,8.18
2019-05-05T16:08:23.186Z,8.60
2019-05-05T16:10:54.442Z,8.05
2019-05-05T16:13:23.385Z,5.97
2019-05-05T16:15:55.712Z,7.35
2019-05-05T16:18:32.559Z,8.35
2019-05-05T16:21:09.160Z,10.03
2019-05-05T16:23:44.286Z,5.60
2019-05-05T16:26:14.060Z,5.92
2019-05-05T16:28:44.554Z,8.50
2019-05-05T16:31:14.519Z,8.28
2019-05-05T16:33:44.195Z,5.72
2019-05-05T16:36:13.930Z,6.40
2019-05-05T16:38:43.659Z,9.05
2019-05-05T16:41:13.597Z,7.35
2019-05-05T16:43:44.332Z,7.25
2019-05-05T16:46:16.687Z,6.12
2019-05-05T16:48:44.766Z,4.22
2019-05-05T16:51:15.660Z,4.22
2019-05-05T16:53:44.958Z,7.85
2019-05-05T16:56:15.795Z,5.67
2019-05-05T16:58:46.013Z,6.20
2019-05-05T17:01:16.654Z,9.63
2019-05-05T17:03:46.055Z,5.75
2019-05-05T17:06:15.360Z,5.78
2019-05-05T17:08:44.648Z,5.80
2019-05-05T17:11:14.985Z,5.92
2019-05-05T17:13:49.178Z,6.28
2019-05-05T17:16:35.423Z,6.15
2019-05-05T17:19:13.977Z,4.95
2019-05-05T17:21:53.895Z,3.40
2019-05-05T17:24:24.233Z,5.70
2019-05-05T17:26:54.942Z,5.90
2019-05-05T17:29:24.460Z,5.97
2019-05-05T17:31:54.084Z,5.25
2019-05-05T17:34:24.791Z,4.47
2019-05-05T17:36:54.040Z,6.40
2019-05-05T17:39:25.100Z,4.75
2019-05-05T17:41:56.026Z,6.70
2019-05-05T17:44:26.930Z,7.53
2019-05-05T17:47:04.443Z,10.72
2019-05-05T17:49:54.113Z,6.47
2019-05-05T17:52:27.458Z,9.75
2019-05-05T17:54:57.403Z,7.22
2019-05-05T17:57:26.553Z,7.28
2019-05-05T17:59:55.720Z,11.10
2019-05-05T18:02:24.950Z,9.93
2019-05-05T18:04:54.306Z,6.75
2019-05-05T18:07:25.219Z,12.82
2019-05-05T18:09:56.076Z,25.12
2019-05-05T18:12:26.941Z,11.00
2019-05-05T18:14:57.751Z,8.35
2019-05-05T18:17:26.938Z,12.78
2019-05-05T18:19:56.134Z,9.85
2019-05-05T18:22:25.317Z,8.40
2019-05-05T18:24:54.494Z,8.90
2019-05-05T18:27:23.818Z,8.08
2019-05-05T18:29:54.407Z,7.17
2019-05-05T18:32:23.848Z,10.15
2019-05-05T18:34:54.545Z,10.25
2019-05-05T18:37:24.969Z,10.63
2019-05-05T18:39:54.751Z,10.68
2019-05-05T18:42:25.024Z,9.78
2019-05-05T18:44:56.940Z,9.35
2019-05-05T18:47:26.174Z,9.73
2019-05-05T18:49:55.410Z,9.58
2019-05-05T18:52:24.716Z,10.05
2019-05-05T18:54:54.434Z,8.53
2019-05-05T18:57:24.856Z,8.80
2019-05-05T18:59:54.422Z,7.62
2019-05-05T19:02:28.358Z,7.62
2019-05-05T19:05:16.690Z,9.05
2019-05-05T19:07:56.008Z,8.65
2019-05-05T19:10:24.518Z,5.80
2019-05-05T19:12:54.337Z,9.05
2019-05-05T19:15:24.475Z,5.85
2019-05-05T19:17:53.963Z,12.15
2019-05-05T19:20:27.582Z,7.30
2019-05-05T19:22:57.464Z,10.35
2019-05-05T19:25:26.753Z,7.12
2019-05-05T19:27:56.007Z,7.90
2019-05-05T19:30:25.761Z,7.35
2019-05-05T19:32:55.048Z,4.83
2019-05-05T19:35:40.228Z,6.87
2019-05-05T19:37:55.123Z,6.62
2019-05-05T19:40:24.426Z,7.80
2019-05-05T19:42:53.964Z,7.00
2019-05-05T19:45:24.097Z,5.15
2019-05-05T19:47:54.103Z,7.55
2019-05-05T19:50:24.967Z,5.70
2019-05-05T19:52:56.320Z,6.80
2019-05-05T19:55:26.384Z,6.85
2019-05-05T19:57:55.606Z,5.67
2019-05-05T20:00:26.353Z,10.82
2019-05-05T20:03:04.578Z,6.25
2019-05-05T20:05:26.656Z,7.72
2019-05-05T20:07:55.827Z,4.85
2019-05-05T20:10:24.994Z,6.15
2019-05-05T20:12:54.280Z,5.33
2019-05-05T20:15:25.172Z,5.40
2019-05-05T20:17:54.331Z,7.70
2019-05-05T20:20:23.512Z,6.80
2019-05-05T20:22:54.677Z,6.70
2019-05-05T20:25:24.418Z,5.95
2019-05-05T20:27:55.958Z,6.80
2019-05-05T20:30:24.898Z,5.72
2019-05-05T20:32:56.323Z,5.42
2019-05-05T20:35:27.501Z,5.70
2019-05-05T20:38:04.881Z,7.35
2019-05-05T20:40:54.606Z,6.10
2019-05-05T20:43:18.742Z,5.65
2019-05-05T20:45:47.918Z,5.15
2019-05-05T20:48:17.124Z,5.20
2019-05-05T20:50:46.286Z,5.22
2019-05-05T20:53:15.481Z,5.67
2019-05-05T20:55:44.840Z,5.00
2019-05-05T20:58:14.608Z,5.65
2019-05-05T21:00:44.334Z,6.72
2019-05-05T21:03:14.199Z,6.03
2019-05-05T21:05:44.032Z,6.67
2019-05-05T21:08:14.166Z,6.35
2019-05-05T21:10:44.575Z,6.37
2019-05-05T21:13:14.359Z,8.88
2019-05-05T21:15:45.183Z,14.28
2019-05-05T21:18:14.555Z,6.85
2019-05-05T21:20:43.817Z,6.67
2019-05-05T21:23:24.564Z,9.98
2019-05-05T21:26:01.401Z,7.80
2019-05-05T21:28:30.627Z,8.75
2019-05-05T21:30:59.784Z,8.45
2019-05-05T21:33:28.929Z,9.73
2019-05-05T21:35:58.071Z,9.80
2019-05-05T21:38:27.248Z,7.53
2019-05-05T21:40:56.419Z,9.40
2019-05-05T21:43:26.100Z,10.45
2019-05-05T21:45:55.299Z,8.05
2019-05-05T21:48:24.445Z,8.53
2019-05-05T21:51:04.749Z,9.20
2019-05-05T21:53:35.754Z,8.18
2019-05-05T21:56:09.487Z,9.10
2019-05-05T21:58:43.954Z,8.55
2019-05-05T22:01:15.170Z,8.18
2019-05-05T22:03:44.511Z,8.00
2019-05-05T22:06:14.561Z,8.25
2019-05-05T22:08:43.998Z,9.50
2019-05-05T22:11:14.677Z,8.90
2019-05-05T22:13:44.363Z,9.40
2019-05-05T22:16:13.812Z,8.53
2019-05-05T22:18:44.668Z,7.87
2019-05-05T22:21:18.299Z,6.30
2019-05-05T22:23:49.079Z,7.30
2019-05-05T22:26:18.242Z,7.25
2019-05-05T22:28:47.391Z,6.05
2019-05-05T22:31:16.672Z,10.65
2019-05-05T22:33:45.855Z,6.40
2019-05-05T22:36:15.031Z,8.90
2019-05-05T22:38:44.662Z,8.08
2019-05-05T22:41:15.873Z,8.30
2019-05-05T22:43:44.786Z,5.70
2019-05-05T22:46:14.209Z,7.30
2019-05-05T22:48:44.010Z,6.50
2019-05-05T22:51:14.400Z,7.00
2019-05-05T22:53:44.180Z,9.08
2019-05-05T22:56:14.756Z,6.78
2019-05-05T22:58:44.063Z,9.03
2019-05-05T23:01:13.700Z,10.15
2019-05-05T23:03:47.341Z,7.35
2019-05-05T23:06:34.463Z,7.72
2019-05-05T23:09:04.955Z,7.37
2019-05-05T23:11:34.980Z,8.03
2019-05-05T23:14:22.344Z,6.58
2019-05-05T23:16:53.803Z,7.55
2019-05-05T23:19:25.722Z,9.03
2019-05-05T23:21:56.619Z,7.58
2019-05-05T23:24:30.181Z,7.17
2019-05-05T23:26:59.335Z,6.72
2019-05-05T23:29:28.497Z,8.93
2019-05-05T23:31:57.660Z,8.20
2019-05-05T23:34:26.810Z,8.90
2019-05-05T23:36:56.025Z,9.10
2019-05-05T23:39:25.177Z,9.98
2019-05-05T23:41:54.832Z,9.03
2019-05-05T23:44:24.108Z,8.53
2019-05-05T23:46:53.875Z,10.23
2019-05-05T23:49:24.266Z,6.95
2019-05-05T23:51:54.149Z,9.15
2019-05-05T23:54:24.603Z,11.15
2019-05-05T23:56:54.283Z,9.08
2019-05-05T23:59:24.043Z,9.83
